sensor_id;sensor_type;location;lat;lon;timestamp;P1;durP1;ratioP1;P2;durP2;ratioP2
19163;SDS011;9714;51.208;4.242;2023-08-17T00:00:39;11.63;;;2.50;;
19163;SDS011;9714;51.208;4.242;2023-08-17T00:03:06;5.55;;;2.00;;
19163;SDS011;9714;51.208;4.242;2023-08-17T00:05:36;7.53;;;2.50;;
19163;SDS011;9714;51.208;4.242;2023-08-17T00:08:03;7.03;;;2.08;;
19163;SDS011;9714;51.208;4.242;2023-08-17T00:10:30;9.15;;;2.00;;
19163;SDS011;9714;51.208;4.242;2023-08-17T00:12:57;5.43;;;2.58;;
19163;SDS011;9714;51.208;4.242;2023-08-17T00:15:25;4.85;;;1.90;;
19163;SDS011;9714;51.208;4.242;2023-08-17T00:17:52;11.13;;;2.75;;
19163;SDS011;9714;51.208;4.242;2023-08-17T00:20:19;6.65;;;2.13;;
19163;SDS011;9714;51.208;4.242;2023-08-17T00:22:47;10.55;;;2.17;;
19163;SDS011;9714;51.208;4.242;2023-08-17T00:25:14;9.77;;;2.28;;
19163;SDS011;9714;51.208;4.242;2023-08-17T00:27:41;6.03;;;2.05;;
19163;SDS011;9714;51.208;4.242;2023-08-17T00:30:11;6.22;;;2.60;;
19163;SDS011;9714;51.208;4.242;2023-08-17T00:32:38;7.40;;;2.30;;
19163;SDS011;9714;51.208;4.242;2023-08-17T00:35:06;6.60;;;2.60;;
19163;SDS011;9714;51.208;4.242;2023-08-17T00:37:33;6.82;;;2.10;;
19163;SDS011;9714;51.208;4.242;2023-08-17T00:40:02;4.57;;;1.95;;
19163;SDS011;9714;51.208;4.242;2023-08-17T00:42:30;5.10;;;2.10;;
19163;SDS011;9714;51.208;4.242;2023-08-17T00:44:58;8.73;;;2.30;;
19163;SDS011;9714;51.208;4.242;2023-08-17T00:47:25;6.00;;;2.10;;
19163;SDS011;9714;51.208;4.242;2023-08-17T00:49:53;6.67;;;2.40;;
19163;SDS011;9714;51.208;4.242;2023-08-17T00:52:20;12.40;;;2.10;;
19163;SDS011;9714;51.208;4.242;2023-08-17T00:54:47;9.20;;;2.17;;
19163;SDS011;9714;51.208;4.242;2023-08-17T00:57:15;7.38;;;2.33;;
19163;SDS011;9714;51.208;4.242;2023-08-17T00:59:45;9.60;;;2.65;;
19163;SDS011;9714;51.208;4.242;2023-08-17T01:02:13;11.13;;;2.50;;
19163;SDS011;9714;51.208;4.242;2023-08-17T01:04:40;6.50;;;2.00;;
19163;SDS011;9714;51.208;4.242;2023-08-17T01:07:08;11.37;;;3.20;;
19163;SDS011;9714;51.208;4.242;2023-08-17T01:09:35;6.80;;;1.93;;
19163;SDS011;9714;51.208;4.242;2023-08-17T01:12:05;6.03;;;1.83;;
19163;SDS011;9714;51.208;4.242;2023-08-17T01:14:39;6.60;;;2.37;;
19163;SDS011;9714;51.208;4.242;2023-08-17T01:17:15;6.20;;;2.17;;
19163;SDS011;9714;51.208;4.242;2023-08-17T01:19:45;8.98;;;2.30;;
19163;SDS011;9714;51.208;4.242;2023-08-17T01:22:14;9.80;;;2.00;;
19163;SDS011;9714;51.208;4.242;2023-08-17T01:24:45;9.60;;;2.33;;
19163;SDS011;9714;51.208;4.242;2023-08-17T01:27:12;6.37;;;1.90;;
19163;SDS011;9714;51.208;4.242;2023-08-17T01:29:39;11.50;;;2.75;;
19163;SDS011;9714;51.208;4.242;2023-08-17T01:32:07;9.17;;;2.17;;
19163;SDS011;9714;51.208;4.242;2023-08-17T01:34:43;7.50;;;1.83;;
19163;SDS011;9714;51.208;4.242;2023-08-17T01:37:24;7.73;;;1.90;;
19163;SDS011;9714;51.208;4.242;2023-08-17T01:39:57;11.48;;;2.70;;
19163;SDS011;9714;51.208;4.242;2023-08-17T01:42:25;9.05;;;1.83;;
19163;SDS011;9714;51.208;4.242;2023-08-17T01:44:52;5.53;;;2.37;;
19163;SDS011;9714;51.208;4.242;2023-08-17T01:47:20;6.07;;;1.90;;
19163;SDS011;9714;51.208;4.242;2023-08-17T01:49:49;7.33;;;2.00;;
19163;SDS011;9714;51.208;4.242;2023-08-17T01:52:16;6.27;;;2.20;;
19163;SDS011;9714;51.208;4.242;2023-08-17T01:54:43;8.20;;;2.00;;
19163;SDS011;9714;51.208;4.242;2023-08-17T01:57:12;6.37;;;2.27;;
19163;SDS011;9714;51.208;4.242;2023-08-17T01:59:39;7.17;;;2.23;;
19163;SDS011;9714;51.208;4.242;2023-08-17T02:02:06;6.30;;;2.57;;
19163;SDS011;9714;51.208;4.242;2023-08-17T02:04:33;7.70;;;2.20;;
19163;SDS011;9714;51.208;4.242;2023-08-17T02:07:00;7.03;;;2.03;;
19163;SDS011;9714;51.208;4.242;2023-08-17T02:09:27;6.20;;;1.80;;
19163;SDS011;9714;51.208;4.242;2023-08-17T02:11:54;9.77;;;1.93;;
19163;SDS011;9714;51.208;4.242;2023-08-17T02:14:23;8.43;;;2.30;;
19163;SDS011;9714;51.208;4.242;2023-08-17T02:16:50;9.37;;;2.70;;
19163;SDS011;9714;51.208;4.242;2023-08-17T02:19:18;8.30;;;2.50;;
19163;SDS011;9714;51.208;4.242;2023-08-17T02:21:45;8.80;;;2.53;;
19163;SDS011;9714;51.208;4.242;2023-08-17T02:24:13;10.30;;;2.60;;
19163;SDS011;9714;51.208;4.242;2023-08-17T02:26:40;7.80;;;2.10;;
19163;SDS011;9714;51.208;4.242;2023-08-17T02:29:07;11.43;;;2.43;;
19163;SDS011;9714;51.208;4.242;2023-08-17T02:31:36;8.20;;;2.00;;
19163;SDS011;9714;51.208;4.242;2023-08-17T02:34:03;8.10;;;2.20;;
19163;SDS011;9714;51.208;4.242;2023-08-17T02:36:31;10.40;;;2.37;;
19163;SDS011;9714;51.208;4.242;2023-08-17T02:38:58;8.90;;;2.60;;
19163;SDS011;9714;51.208;4.242;2023-08-17T02:41:26;5.73;;;1.97;;
19163;SDS011;9714;51.208;4.242;2023-08-17T02:43:55;10.87;;;2.00;;
19163;SDS011;9714;51.208;4.242;2023-08-17T02:46:22;6.93;;;2.90;;
19163;SDS011;9714;51.208;4.242;2023-08-17T02:48:51;8.17;;;2.37;;
19163;SDS011;9714;51.208;4.242;2023-08-17T02:51:18;8.53;;;2.47;;
19163;SDS011;9714;51.208;4.242;2023-08-17T02:53:45;8.27;;;2.30;;
19163;SDS011;9714;51.208;4.242;2023-08-17T02:56:12;7.73;;;2.20;;
19163;SDS011;9714;51.208;4.242;2023-08-17T02:58:39;8.17;;;2.20;;
19163;SDS011;9714;51.208;4.242;2023-08-17T03:01:06;14.43;;;3.67;;
19163;SDS011;9714;51.208;4.242;2023-08-17T03:03:33;6.53;;;2.13;;
19163;SDS011;9714;51.208;4.242;2023-08-17T03:06:02;8.93;;;3.00;;
19163;SDS011;9714;51.208;4.242;2023-08-17T03:08:30;8.57;;;2.30;;
19163;SDS011;9714;51.208;4.242;2023-08-17T03:10:57;11.90;;;2.47;;
19163;SDS011;9714;51.208;4.242;2023-08-17T03:13:23;9.03;;;2.73;;
19163;SDS011;9714;51.208;4.242;2023-08-17T03:15:51;10.47;;;2.70;;
19163;SDS011;9714;51.208;4.242;2023-08-17T03:18:18;8.43;;;2.43;;
19163;SDS011;9714;51.208;4.242;2023-08-17T03:20:45;8.00;;;2.33;;
19163;SDS011;9714;51.208;4.242;2023-08-17T03:23:14;8.70;;;2.40;;
19163;SDS011;9714;51.208;4.242;2023-08-17T03:25:41;8.90;;;2.30;;
19163;SDS011;9714;51.208;4.242;2023-08-17T03:28:08;9.10;;;2.50;;
19163;SDS011;9714;51.208;4.242;2023-08-17T03:30:35;10.97;;;3.07;;
19163;SDS011;9714;51.208;4.242;2023-08-17T03:33:02;7.73;;;2.47;;
19163;SDS011;9714;51.208;4.242;2023-08-17T03:35:30;9.93;;;2.47;;
19163;SDS011;9714;51.208;4.242;2023-08-17T03:37:57;10.70;;;2.63;;
19163;SDS011;9714;51.208;4.242;2023-08-17T03:40:25;5.83;;;2.40;;
19163;SDS011;9714;51.208;4.242;2023-08-17T03:42:52;11.40;;;2.60;;
19163;SDS011;9714;51.208;4.242;2023-08-17T03:45:19;10.20;;;2.43;;
19163;SDS011;9714;51.208;4.242;2023-08-17T03:47:46;9.87;;;2.37;;
19163;SDS011;9714;51.208;4.242;2023-08-17T03:50:13;7.70;;;2.33;;
19163;SDS011;9714;51.208;4.242;2023-08-17T03:52:40;11.47;;;3.00;;
19163;SDS011;9714;51.208;4.242;2023-08-17T03:55:07;7.33;;;3.03;;
19163;SDS011;9714;51.208;4.242;2023-08-17T03:57:38;6.40;;;2.03;;
19163;SDS011;9714;51.208;4.242;2023-08-17T04:00:05;8.13;;;2.20;;
19163;SDS011;9714;51.208;4.242;2023-08-17T04:02:35;8.93;;;2.10;;
19163;SDS011;9714;51.208;4.242;2023-08-17T04:05:02;6.37;;;2.30;;
19163;SDS011;9714;51.208;4.242;2023-08-17T04:07:29;10.53;;;2.47;;
19163;SDS011;9714;51.208;4.242;2023-08-17T04:09:56;7.90;;;2.57;;
19163;SDS011;9714;51.208;4.242;2023-08-17T04:12:23;8.97;;;2.93;;
19163;SDS011;9714;51.208;4.242;2023-08-17T04:14:52;12.23;;;2.43;;
19163;SDS011;9714;51.208;4.242;2023-08-17T04:17:19;7.03;;;2.10;;
19163;SDS011;9714;51.208;4.242;2023-08-17T04:19:46;8.37;;;2.10;;
19163;SDS011;9714;51.208;4.242;2023-08-17T04:22:13;7.90;;;2.10;;
19163;SDS011;9714;51.208;4.242;2023-08-17T04:24:41;8.27;;;2.00;;
19163;SDS011;9714;51.208;4.242;2023-08-17T04:27:08;8.50;;;1.90;;
19163;SDS011;9714;51.208;4.242;2023-08-17T04:29:37;10.63;;;2.20;;
19163;SDS011;9714;51.208;4.242;2023-08-17T04:32:05;8.40;;;2.27;;
19163;SDS011;9714;51.208;4.242;2023-08-17T04:34:33;7.50;;;1.97;;
19163;SDS011;9714;51.208;4.242;2023-08-17T04:37:00;11.53;;;2.03;;
19163;SDS011;9714;51.208;4.242;2023-08-17T04:39:27;7.60;;;1.80;;
19163;SDS011;9714;51.208;4.242;2023-08-17T04:41:54;6.30;;;2.23;;
19163;SDS011;9714;51.208;4.242;2023-08-17T04:44:22;8.37;;;1.93;;
19163;SDS011;9714;51.208;4.242;2023-08-17T04:46:49;6.93;;;1.80;;
19163;SDS011;9714;51.208;4.242;2023-08-17T04:49:17;10.03;;;1.80;;
19163;SDS011;9714;51.208;4.242;2023-08-17T04:51:44;5.57;;;1.73;;
19163;SDS011;9714;51.208;4.242;2023-08-17T04:54:12;4.90;;;1.70;;
19163;SDS011;9714;51.208;4.242;2023-08-17T04:56:39;6.57;;;1.80;;
19163;SDS011;9714;51.208;4.242;2023-08-17T04:59:06;7.73;;;2.00;;
19163;SDS011;9714;51.208;4.242;2023-08-17T05:01:33;5.17;;;1.50;;
19163;SDS011;9714;51.208;4.242;2023-08-17T05:04:01;4.20;;;1.47;;
19163;SDS011;9714;51.208;4.242;2023-08-17T05:06:32;6.70;;;2.10;;
19163;SDS011;9714;51.208;4.242;2023-08-17T05:08:59;4.43;;;1.47;;
19163;SDS011;9714;51.208;4.242;2023-08-17T05:11:26;7.53;;;1.70;;
19163;SDS011;9714;51.208;4.242;2023-08-17T05:13:53;7.23;;;1.40;;
19163;SDS011;9714;51.208;4.242;2023-08-17T05:16:20;6.00;;;1.47;;
19163;SDS011;9714;51.208;4.242;2023-08-17T05:18:47;5.83;;;2.00;;
19163;SDS011;9714;51.208;4.242;2023-08-17T05:21:16;6.97;;;1.50;;
19163;SDS011;9714;51.208;4.242;2023-08-17T05:23:45;7.37;;;1.97;;
19163;SDS011;9714;51.208;4.242;2023-08-17T05:26:12;7.67;;;2.00;;
19163;SDS011;9714;51.208;4.242;2023-08-17T05:28:39;5.33;;;1.40;;
19163;SDS011;9714;51.208;4.242;2023-08-17T05:31:08;4.80;;;1.23;;
19163;SDS011;9714;51.208;4.242;2023-08-17T05:33:35;6.00;;;1.97;;
19163;SDS011;9714;51.208;4.242;2023-08-17T05:36:03;8.53;;;1.70;;
19163;SDS011;9714;51.208;4.242;2023-08-17T05:38:30;4.60;;;1.77;;
19163;SDS011;9714;51.208;4.242;2023-08-17T05:40:59;6.80;;;1.60;;
19163;SDS011;9714;51.208;4.242;2023-08-17T05:43:27;7.23;;;1.97;;
19163;SDS011;9714;51.208;4.242;2023-08-17T05:45:56;7.67;;;2.13;;
19163;SDS011;9714;51.208;4.242;2023-08-17T05:48:24;5.03;;;1.63;;
19163;SDS011;9714;51.208;4.242;2023-08-17T05:50:51;5.97;;;1.70;;
19163;SDS011;9714;51.208;4.242;2023-08-17T05:53:19;9.83;;;2.33;;
19163;SDS011;9714;51.208;4.242;2023-08-17T05:55:46;7.43;;;1.87;;
19163;SDS011;9714;51.208;4.242;2023-08-17T05:58:21;8.83;;;1.77;;
19163;SDS011;9714;51.208;4.242;2023-08-17T06:00:48;8.80;;;2.00;;
19163;SDS011;9714;51.208;4.242;2023-08-17T06:03:15;6.07;;;1.70;;
19163;SDS011;9714;51.208;4.242;2023-08-17T06:05:42;9.47;;;1.90;;
19163;SDS011;9714;51.208;4.242;2023-08-17T06:08:09;7.70;;;1.63;;
19163;SDS011;9714;51.208;4.242;2023-08-17T06:10:36;6.60;;;2.00;;
19163;SDS011;9714;51.208;4.242;2023-08-17T06:13:03;6.27;;;1.77;;
19163;SDS011;9714;51.208;4.242;2023-08-17T06:15:31;8.27;;;1.90;;
19163;SDS011;9714;51.208;4.242;2023-08-17T06:17:59;8.63;;;1.60;;
19163;SDS011;9714;51.208;4.242;2023-08-17T06:20:26;10.80;;;1.70;;
19163;SDS011;9714;51.208;4.242;2023-08-17T06:22:57;4.90;;;1.43;;
19163;SDS011;9714;51.208;4.242;2023-08-17T06:25:24;6.63;;;2.00;;
19163;SDS011;9714;51.208;4.242;2023-08-17T06:27:54;5.03;;;1.97;;
19163;SDS011;9714;51.208;4.242;2023-08-17T06:30:26;7.77;;;1.63;;
19163;SDS011;9714;51.208;4.242;2023-08-17T06:32:55;6.30;;;1.70;;
19163;SDS011;9714;51.208;4.242;2023-08-17T06:35:22;9.90;;;2.00;;
19163;SDS011;9714;51.208;4.242;2023-08-17T06:37:49;12.23;;;2.17;;
19163;SDS011;9714;51.208;4.242;2023-08-17T06:40:19;8.60;;;1.60;;
19163;SDS011;9714;51.208;4.242;2023-08-17T06:42:46;6.40;;;1.93;;
19163;SDS011;9714;51.208;4.242;2023-08-17T06:45:13;8.80;;;2.63;;
19163;SDS011;9714;51.208;4.242;2023-08-17T06:47:43;7.60;;;1.90;;
19163;SDS011;9714;51.208;4.242;2023-08-17T06:50:12;6.20;;;2.13;;
19163;SDS011;9714;51.208;4.242;2023-08-17T06:52:40;8.37;;;1.73;;
19163;SDS011;9714;51.208;4.242;2023-08-17T06:55:08;7.87;;;2.00;;
19163;SDS011;9714;51.208;4.242;2023-08-17T06:57:36;7.27;;;1.83;;
19163;SDS011;9714;51.208;4.242;2023-08-17T07:00:05;7.37;;;1.90;;
19163;SDS011;9714;51.208;4.242;2023-08-17T07:02:33;9.43;;;2.20;;
19163;SDS011;9714;51.208;4.242;2023-08-17T07:05:00;5.90;;;1.80;;
19163;SDS011;9714;51.208;4.242;2023-08-17T07:07:30;8.70;;;2.30;;
19163;SDS011;9714;51.208;4.242;2023-08-17T07:09:58;11.27;;;2.20;;
19163;SDS011;9714;51.208;4.242;2023-08-17T07:12:32;7.70;;;2.10;;
19163;SDS011;9714;51.208;4.242;2023-08-17T07:15:00;9.60;;;2.20;;
19163;SDS011;9714;51.208;4.242;2023-08-17T07:17:28;10.33;;;2.00;;
19163;SDS011;9714;51.208;4.242;2023-08-17T07:19:56;11.10;;;2.17;;
19163;SDS011;9714;51.208;4.242;2023-08-17T07:22:24;10.73;;;1.93;;
19163;SDS011;9714;51.208;4.242;2023-08-17T07:24:53;6.37;;;2.00;;
19163;SDS011;9714;51.208;4.242;2023-08-17T07:27:20;9.52;;;2.58;;
19163;SDS011;9714;51.208;4.242;2023-08-17T07:29:47;7.53;;;2.05;;
19163;SDS011;9714;51.208;4.242;2023-08-17T07:32:14;8.65;;;2.22;;
19163;SDS011;9714;51.208;4.242;2023-08-17T07:34:41;9.43;;;2.50;;
19163;SDS011;9714;51.208;4.242;2023-08-17T07:37:09;8.60;;;2.65;;
19163;SDS011;9714;51.208;4.242;2023-08-17T07:39:38;5.30;;;1.90;;
19163;SDS011;9714;51.208;4.242;2023-08-17T07:42:07;8.60;;;2.10;;
19163;SDS011;9714;51.208;4.242;2023-08-17T07:44:34;6.90;;;1.88;;
19163;SDS011;9714;51.208;4.242;2023-08-17T07:47:01;13.02;;;3.10;;
19163;SDS011;9714;51.208;4.242;2023-08-17T07:49:28;8.80;;;2.40;;
19163;SDS011;9714;51.208;4.242;2023-08-17T07:52:01;5.95;;;1.75;;
19163;SDS011;9714;51.208;4.242;2023-08-17T07:54:28;10.77;;;2.10;;
19163;SDS011;9714;51.208;4.242;2023-08-17T07:56:55;9.05;;;2.28;;
19163;SDS011;9714;51.208;4.242;2023-08-17T07:59:23;6.28;;;2.20;;
19163;SDS011;9714;51.208;4.242;2023-08-17T08:01:50;8.35;;;2.50;;
19163;SDS011;9714;51.208;4.242;2023-08-17T08:04:18;10.15;;;2.88;;
19163;SDS011;9714;51.208;4.242;2023-08-17T08:06:45;9.40;;;3.03;;
19163;SDS011;9714;51.208;4.242;2023-08-17T08:09:12;8.23;;;2.70;;
19163;SDS011;9714;51.208;4.242;2023-08-17T08:11:40;10.75;;;2.72;;
19163;SDS011;9714;51.208;4.242;2023-08-17T08:14:07;12.23;;;3.03;;
19163;SDS011;9714;51.208;4.242;2023-08-17T08:16:36;6.88;;;2.40;;
19163;SDS011;9714;51.208;4.242;2023-08-17T08:19:03;8.30;;;2.50;;
19163;SDS011;9714;51.208;4.242;2023-08-17T08:21:31;8.75;;;2.53;;
19163;SDS011;9714;51.208;4.242;2023-08-17T08:23:58;7.03;;;2.50;;
19163;SDS011;9714;51.208;4.242;2023-08-17T08:26:25;8.70;;;2.88;;
19163;SDS011;9714;51.208;4.242;2023-08-17T08:28:54;9.55;;;2.20;;
19163;SDS011;9714;51.208;4.242;2023-08-17T08:31:21;9.95;;;2.90;;
19163;SDS011;9714;51.208;4.242;2023-08-17T08:33:50;10.82;;;2.83;;
19163;SDS011;9714;51.208;4.242;2023-08-17T08:36:18;7.63;;;2.25;;
19163;SDS011;9714;51.208;4.242;2023-08-17T08:38:45;9.27;;;2.67;;
19163;SDS011;9714;51.208;4.242;2023-08-17T08:41:13;13.20;;;2.80;;
19163;SDS011;9714;51.208;4.242;2023-08-17T08:43:40;7.68;;;2.90;;
19163;SDS011;9714;51.208;4.242;2023-08-17T08:46:09;9.75;;;2.95;;
19163;SDS011;9714;51.208;4.242;2023-08-17T08:48:38;11.95;;;2.97;;
19163;SDS011;9714;51.208;4.242;2023-08-17T08:51:08;12.43;;;3.67;;
19163;SDS011;9714;51.208;4.242;2023-08-17T08:53:44;9.23;;;3.22;;
19163;SDS011;9714;51.208;4.242;2023-08-17T08:56:15;11.13;;;3.28;;
19163;SDS011;9714;51.208;4.242;2023-08-17T08:58:45;17.48;;;2.90;;
19163;SDS011;9714;51.208;4.242;2023-08-17T09:01:15;10.45;;;3.47;;
19163;SDS011;9714;51.208;4.242;2023-08-17T09:03:46;9.13;;;2.78;;
19163;SDS011;9714;51.208;4.242;2023-08-17T09:06:15;10.27;;;3.25;;
19163;SDS011;9714;51.208;4.242;2023-08-17T09:08:44;8.23;;;2.53;;
19163;SDS011;9714;51.208;4.242;2023-08-17T09:11:12;10.43;;;3.22;;
19163;SDS011;9714;51.208;4.242;2023-08-17T09:13:39;10.38;;;3.80;;
19163;SDS011;9714;51.208;4.242;2023-08-17T09:16:06;6.15;;;2.30;;
19163;SDS011;9714;51.208;4.242;2023-08-17T09:18:34;8.48;;;2.50;;
19163;SDS011;9714;51.208;4.242;2023-08-17T09:21:02;9.95;;;3.30;;
19163;SDS011;9714;51.208;4.242;2023-08-17T09:23:31;13.50;;;4.10;;
19163;SDS011;9714;51.208;4.242;2023-08-17T09:25:58;9.55;;;2.97;;
19163;SDS011;9714;51.208;4.242;2023-08-17T09:28:35;7.72;;;2.85;;
19163;SDS011;9714;51.208;4.242;2023-08-17T09:31:05;8.68;;;3.10;;
19163;SDS011;9714;51.208;4.242;2023-08-17T09:33:32;10.18;;;3.15;;
19163;SDS011;9714;51.208;4.242;2023-08-17T09:36:00;10.57;;;3.20;;
19163;SDS011;9714;51.208;4.242;2023-08-17T09:38:27;11.48;;;2.92;;
19163;SDS011;9714;51.208;4.242;2023-08-17T09:40:57;8.73;;;2.75;;
19163;SDS011;9714;51.208;4.242;2023-08-17T09:43:24;10.15;;;3.22;;
19163;SDS011;9714;51.208;4.242;2023-08-17T09:45:53;14.80;;;4.85;;
19163;SDS011;9714;51.208;4.242;2023-08-17T09:48:21;11.00;;;3.28;;
19163;SDS011;9714;51.208;4.242;2023-08-17T09:50:56;11.25;;;3.38;;
19163;SDS011;9714;51.208;4.242;2023-08-17T09:53:24;12.48;;;3.70;;
19163;SDS011;9714;51.208;4.242;2023-08-17T09:55:51;9.38;;;3.28;;
19163;SDS011;9714;51.208;4.242;2023-08-17T09:58:22;11.25;;;3.30;;
19163;SDS011;9714;51.208;4.242;2023-08-17T10:00:50;8.50;;;3.20;;
19163;SDS011;9714;51.208;4.242;2023-08-17T10:03:17;16.27;;;3.83;;
19163;SDS011;9714;51.208;4.242;2023-08-17T10:05:47;9.70;;;3.38;;
19163;SDS011;9714;51.208;4.242;2023-08-17T10:08:24;7.25;;;3.35;;
19163;SDS011;9714;51.208;4.242;2023-08-17T10:10:55;15.77;;;3.38;;
19163;SDS011;9714;51.208;4.242;2023-08-17T10:13:27;9.45;;;3.42;;
19163;SDS011;9714;51.208;4.242;2023-08-17T10:16:07;7.15;;;3.25;;
19163;SDS011;9714;51.208;4.242;2023-08-17T10:18:45;9.63;;;3.70;;
19163;SDS011;9714;51.208;4.242;2023-08-17T10:21:23;10.82;;;3.90;;
19163;SDS011;9714;51.208;4.242;2023-08-17T10:23:55;11.80;;;4.32;;
19163;SDS011;9714;51.208;4.242;2023-08-17T10:26:23;9.85;;;4.00;;
19163;SDS011;9714;51.208;4.242;2023-08-17T10:28:53;9.65;;;4.20;;
19163;SDS011;9714;51.208;4.242;2023-08-17T10:31:23;12.90;;;5.25;;
19163;SDS011;9714;51.208;4.242;2023-08-17T10:33:51;10.13;;;4.30;;
19163;SDS011;9714;51.208;4.242;2023-08-17T10:36:19;9.60;;;4.30;;
19163;SDS011;9714;51.208;4.242;2023-08-17T10:38:48;13.70;;;5.00;;
19163;SDS011;9714;51.208;4.242;2023-08-17T10:41:46;10.90;;;4.35;;
19163;SDS011;9714;51.208;4.242;2023-08-17T10:44:15;11.95;;;4.07;;
19163;SDS011;9714;51.208;4.242;2023-08-17T10:46:43;11.40;;;3.95;;
19163;SDS011;9714;51.208;4.242;2023-08-17T10:49:24;8.43;;;3.88;;
19163;SDS011;9714;51.208;4.242;2023-08-17T10:52:01;14.85;;;4.50;;
19163;SDS011;9714;51.208;4.242;2023-08-17T10:54:36;12.43;;;4.10;;
19163;SDS011;9714;51.208;4.242;2023-08-17T11:02:45;9.60;;;4.60;;
19163;SDS011;9714;51.208;4.242;2023-08-17T11:05:33;11.20;;;3.72;;
19163;SDS011;9714;51.208;4.242;2023-08-17T11:08:03;10.32;;;4.43;;
19163;SDS011;9714;51.208;4.242;2023-08-17T11:10:31;12.73;;;4.95;;
19163;SDS011;9714;51.208;4.242;2023-08-17T11:12:59;10.63;;;4.90;;
19163;SDS011;9714;51.208;4.242;2023-08-17T11:15:36;14.40;;;4.30;;
19163;SDS011;9714;51.208;4.242;2023-08-17T11:18:05;12.05;;;4.30;;
19163;SDS011;9714;51.208;4.242;2023-08-17T11:20:33;11.43;;;3.97;;
19163;SDS011;9714;51.208;4.242;2023-08-17T11:23:00;10.98;;;4.10;;
19163;SDS011;9714;51.208;4.242;2023-08-17T11:25:28;10.98;;;4.07;;
19163;SDS011;9714;51.208;4.242;2023-08-17T11:27:57;10.13;;;3.60;;
19163;SDS011;9714;51.208;4.242;2023-08-17T11:30:26;13.80;;;4.25;;
19163;SDS011;9714;51.208;4.242;2023-08-17T11:32:55;9.27;;;3.42;;
19163;SDS011;9714;51.208;4.242;2023-08-17T11:35:23;10.80;;;4.13;;
19163;SDS011;9714;51.208;4.242;2023-08-17T11:37:50;9.88;;;3.55;;
19163;SDS011;9714;51.208;4.242;2023-08-17T11:40:17;11.85;;;4.10;;
19163;SDS011;9714;51.208;4.242;2023-08-17T11:42:44;11.57;;;3.95;;
19163;SDS011;9714;51.208;4.242;2023-08-17T11:45:12;10.20;;;3.92;;
19163;SDS011;9714;51.208;4.242;2023-08-17T11:47:40;14.23;;;3.78;;
19163;SDS011;9714;51.208;4.242;2023-08-17T11:50:10;9.50;;;4.18;;
19163;SDS011;9714;51.208;4.242;2023-08-17T11:52:38;12.70;;;3.90;;
19163;SDS011;9714;51.208;4.242;2023-08-17T11:55:06;12.70;;;4.75;;
19163;SDS011;9714;51.208;4.242;2023-08-17T11:57:35;13.90;;;4.57;;
19163;SDS011;9714;51.208;4.242;2023-08-17T12:00:04;9.02;;;3.95;;
19163;SDS011;9714;51.208;4.242;2023-08-17T12:02:32;10.80;;;4.47;;
19163;SDS011;9714;51.208;4.242;2023-08-17T12:05:04;11.35;;;5.00;;
19163;SDS011;9714;51.208;4.242;2023-08-17T12:07:33;13.85;;;4.40;;
19163;SDS011;9714;51.208;4.242;2023-08-17T12:10:02;13.18;;;4.60;;
19163;SDS011;9714;51.208;4.242;2023-08-17T12:12:35;15.95;;;4.18;;
19163;SDS011;9714;51.208;4.242;2023-08-17T12:15:05;8.73;;;3.97;;
19163;SDS011;9714;51.208;4.242;2023-08-17T12:17:33;9.18;;;3.95;;
19163;SDS011;9714;51.208;4.242;2023-08-17T12:20:01;13.23;;;4.70;;
19163;SDS011;9714;51.208;4.242;2023-08-17T12:22:29;10.45;;;4.18;;
19163;SDS011;9714;51.208;4.242;2023-08-17T12:24:59;9.60;;;4.65;;
19163;SDS011;9714;51.208;4.242;2023-08-17T12:27:27;12.95;;;4.40;;
19163;SDS011;9714;51.208;4.242;2023-08-17T12:29:55;10.52;;;4.55;;
19163;SDS011;9714;51.208;4.242;2023-08-17T12:32:22;10.95;;;4.45;;
19163;SDS011;9714;51.208;4.242;2023-08-17T12:34:50;11.55;;;4.70;;
19163;SDS011;9714;51.208;4.242;2023-08-17T12:37:20;13.23;;;4.57;;
19163;SDS011;9714;51.208;4.242;2023-08-17T12:39:47;12.80;;;4.78;;
19163;SDS011;9714;51.208;4.242;2023-08-17T12:42:16;13.52;;;4.10;;
19163;SDS011;9714;51.208;4.242;2023-08-17T12:44:43;14.20;;;5.22;;
19163;SDS011;9714;51.208;4.242;2023-08-17T12:47:10;12.63;;;5.07;;
19163;SDS011;9714;51.208;4.242;2023-08-17T12:49:37;12.55;;;5.10;;
19163;SDS011;9714;51.208;4.242;2023-08-17T12:52:04;14.00;;;4.85;;
19163;SDS011;9714;51.208;4.242;2023-08-17T12:54:32;11.18;;;4.75;;
19163;SDS011;9714;51.208;4.242;2023-08-17T12:56:59;11.95;;;4.97;;
19163;SDS011;9714;51.208;4.242;2023-08-17T12:59:29;12.65;;;5.05;;
19163;SDS011;9714;51.208;4.242;2023-08-17T13:01:57;12.02;;;5.32;;
19163;SDS011;9714;51.208;4.242;2023-08-17T13:04:24;12.68;;;5.25;;
19163;SDS011;9714;51.208;4.242;2023-08-17T13:06:51;19.98;;;6.13;;
19163;SDS011;9714;51.208;4.242;2023-08-17T13:09:20;9.63;;;4.75;;
19163;SDS011;9714;51.208;4.242;2023-08-17T13:11:48;9.98;;;5.07;;
19163;SDS011;9714;51.208;4.242;2023-08-17T13:14:15;10.98;;;4.65;;
19163;SDS011;9714;51.208;4.242;2023-08-17T13:16:45;12.23;;;5.50;;
19163;SDS011;9714;51.208;4.242;2023-08-17T13:19:12;13.40;;;5.40;;
19163;SDS011;9714;51.208;4.242;2023-08-17T13:21:39;12.27;;;5.45;;
19163;SDS011;9714;51.208;4.242;2023-08-17T13:24:06;12.63;;;5.18;;
19163;SDS011;9714;51.208;4.242;2023-08-17T13:26:33;14.18;;;5.35;;
19163;SDS011;9714;51.208;4.242;2023-08-17T13:29:01;13.52;;;5.57;;
19163;SDS011;9714;51.208;4.242;2023-08-17T13:31:28;13.05;;;4.82;;
19163;SDS011;9714;51.208;4.242;2023-08-17T13:33:57;14.20;;;5.50;;
19163;SDS011;9714;51.208;4.242;2023-08-17T13:36:24;14.38;;;5.50;;
19163;SDS011;9714;51.208;4.242;2023-08-17T13:38:52;13.10;;;5.82;;
19163;SDS011;9714;51.208;4.242;2023-08-17T13:41:19;11.45;;;5.13;;
19163;SDS011;9714;51.208;4.242;2023-08-17T13:43:48;12.93;;;4.97;;
19163;SDS011;9714;51.208;4.242;2023-08-17T13:46:15;12.23;;;5.53;;
19163;SDS011;9714;51.208;4.242;2023-08-17T13:48:42;13.73;;;6.30;;
19163;SDS011;9714;51.208;4.242;2023-08-17T13:51:11;13.80;;;5.22;;
19163;SDS011;9714;51.208;4.242;2023-08-17T13:53:39;10.60;;;5.78;;
19163;SDS011;9714;51.208;4.242;2023-08-17T13:56:07;15.75;;;5.75;;
19163;SDS011;9714;51.208;4.242;2023-08-17T13:58:34;14.32;;;6.07;;
19163;SDS011;9714;51.208;4.242;2023-08-17T14:01:03;17.05;;;6.18;;
19163;SDS011;9714;51.208;4.242;2023-08-17T14:03:31;13.00;;;6.70;;
19163;SDS011;9714;51.208;4.242;2023-08-17T14:05:59;16.05;;;6.43;;
19163;SDS011;9714;51.208;4.242;2023-08-17T14:08:27;16.23;;;6.10;;
19163;SDS011;9714;51.208;4.242;2023-08-17T14:10:54;16.70;;;7.05;;
19163;SDS011;9714;51.208;4.242;2023-08-17T14:13:22;17.40;;;6.88;;
19163;SDS011;9714;51.208;4.242;2023-08-17T14:15:49;14.77;;;7.22;;
19163;SDS011;9714;51.208;4.242;2023-08-17T14:18:16;14.98;;;5.93;;
19163;SDS011;9714;51.208;4.242;2023-08-17T14:20:45;22.45;;;6.65;;
19163;SDS011;9714;51.208;4.242;2023-08-17T14:23:12;17.60;;;6.78;;
19163;SDS011;9714;51.208;4.242;2023-08-17T14:25:40;13.68;;;6.75;;
19163;SDS011;9714;51.208;4.242;2023-08-17T14:28:13;13.15;;;6.63;;
19163;SDS011;9714;51.208;4.242;2023-08-17T14:30:40;17.02;;;6.93;;
19163;SDS011;9714;51.208;4.242;2023-08-17T14:33:07;14.57;;;7.93;;
19163;SDS011;9714;51.208;4.242;2023-08-17T14:35:34;22.83;;;7.90;;
19163;SDS011;9714;51.208;4.242;2023-08-17T14:38:03;16.52;;;7.78;;
19163;SDS011;9714;51.208;4.242;2023-08-17T14:40:31;16.95;;;7.93;;
19163;SDS011;9714;51.208;4.242;2023-08-17T14:43:00;20.33;;;7.55;;
19163;SDS011;9714;51.208;4.242;2023-08-17T14:45:27;14.38;;;7.28;;
19163;SDS011;9714;51.208;4.242;2023-08-17T14:47:55;16.25;;;8.43;;
19163;SDS011;9714;51.208;4.242;2023-08-17T14:50:24;15.57;;;8.05;;
19163;SDS011;9714;51.208;4.242;2023-08-17T14:52:52;14.05;;;7.00;;
19163;SDS011;9714;51.208;4.242;2023-08-17T14:55:19;19.35;;;8.25;;
19163;SDS011;9714;51.208;4.242;2023-08-17T14:57:46;16.60;;;8.18;;
19163;SDS011;9714;51.208;4.242;2023-08-17T15:00:15;19.05;;;8.93;;
19163;SDS011;9714;51.208;4.242;2023-08-17T15:02:43;18.05;;;7.55;;
19163;SDS011;9714;51.208;4.242;2023-08-17T15:05:11;17.70;;;8.13;;
19163;SDS011;9714;51.208;4.242;2023-08-17T15:07:44;17.60;;;8.25;;